sensor_id;sensor_type;location;lat;lon;timestamp;P1;durP1;ratioP1;P2;durP2;ratioP2
6527;SDS011;64597;42.664;23.256;2023-11-19T00:00:34;1.58;;;1.25;;
6527;SDS011;64597;42.664;23.256;2023-11-19T00:03:00;3.00;;;1.55;;
6527;SDS011;64597;42.664;23.256;2023-11-19T00:05:26;3.20;;;1.33;;
6527;SDS011;64597;42.664;23.256;2023-11-19T00:07:53;1.90;;;1.42;;
6527;SDS011;64597;42.664;23.256;2023-11-19T00:10:19;1.63;;;1.27;;
6527;SDS011;64597;42.664;23.256;2023-11-19T00:12:46;2.20;;;1.50;;
6527;SDS011;64597;42.664;23.256;2023-11-19T00:15:13;1.85;;;1.50;;
6527;SDS011;64597;42.664;23.256;2023-11-19T00:17:40;2.25;;;1.80;;
6527;SDS011;64597;42.664;23.256;2023-11-19T00:20:10;2.05;;;1.55;;
6527;SDS011;64597;42.664;23.256;2023-11-19T00:22:42;1.10;;;0.68;;
6527;SDS011;64597;42.664;23.256;2023-11-19T00:25:09;2.00;;;1.25;;
6527;SDS011;64597;42.664;23.256;2023-11-19T00:27:35;2.30;;;1.38;;
6527;SDS011;64597;42.664;23.256;2023-11-19T00:30:02;1.33;;;1.23;;
6527;SDS011;64597;42.664;23.256;2023-11-19T00:32:30;4.13;;;1.65;;
6527;SDS011;64597;42.664;23.256;2023-11-19T00:34:56;2.17;;;1.27;;
6527;SDS011;64597;42.664;23.256;2023-11-19T00:37:22;2.35;;;1.50;;
6527;SDS011;64597;42.664;23.256;2023-11-19T00:39:47;2.85;;;1.55;;
6527;SDS011;64597;42.664;23.256;2023-11-19T00:42:13;1.52;;;1.42;;
6527;SDS011;64597;42.664;23.256;2023-11-19T00:44:40;2.63;;;1.50;;
6527;SDS011;64597;42.664;23.256;2023-11-19T00:47:07;3.00;;;1.65;;
6527;SDS011;64597;42.664;23.256;2023-11-19T00:49:33;1.80;;;1.60;;
6527;SDS011;64597;42.664;23.256;2023-11-19T00:51:58;1.92;;;1.30;;
6527;SDS011;64597;42.664;23.256;2023-11-19T00:54:24;1.95;;;1.60;;
6527;SDS011;64597;42.664;23.256;2023-11-19T00:56:53;1.40;;;1.25;;
6527;SDS011;64597;42.664;23.256;2023-11-19T00:59:19;3.53;;;1.60;;
6527;SDS011;64597;42.664;23.256;2023-11-19T01:01:45;2.45;;;1.65;;
6527;SDS011;64597;42.664;23.256;2023-11-19T01:04:13;2.60;;;1.60;;
6527;SDS011;64597;42.664;23.256;2023-11-19T01:06:39;1.73;;;1.50;;
6527;SDS011;64597;42.664;23.256;2023-11-19T01:09:04;2.55;;;1.48;;
6527;SDS011;64597;42.664;23.256;2023-11-19T01:11:29;2.08;;;1.48;;
6527;SDS011;64597;42.664;23.256;2023-11-19T01:13:55;1.88;;;1.15;;
6527;SDS011;64597;42.664;23.256;2023-11-19T01:16:21;2.63;;;1.45;;
6527;SDS011;64597;42.664;23.256;2023-11-19T01:18:47;2.13;;;1.30;;
6527;SDS011;64597;42.664;23.256;2023-11-19T01:21:13;2.30;;;1.58;;
6527;SDS011;64597;42.664;23.256;2023-11-19T01:23:42;2.13;;;1.45;;
6527;SDS011;64597;42.664;23.256;2023-11-19T01:26:11;2.53;;;1.63;;
6527;SDS011;64597;42.664;23.256;2023-11-19T01:28:38;1.92;;;1.55;;
6527;SDS011;64597;42.664;23.256;2023-11-19T01:31:09;2.03;;;1.42;;
6527;SDS011;64597;42.664;23.256;2023-11-19T01:33:39;1.65;;;1.17;;
6527;SDS011;64597;42.664;23.256;2023-11-19T01:36:06;3.05;;;1.58;;
6527;SDS011;64597;42.664;23.256;2023-11-19T01:38:33;2.95;;;1.73;;
6527;SDS011;64597;42.664;23.256;2023-11-19T01:40:59;2.60;;;1.33;;
6527;SDS011;64597;42.664;23.256;2023-11-19T01:45:59;2.28;;;1.58;;
6527;SDS011;64597;42.664;23.256;2023-11-19T01:48:25;2.17;;;1.48;;
6527;SDS011;64597;42.664;23.256;2023-11-19T01:50:51;1.50;;;1.20;;
6527;SDS011;64597;42.664;23.256;2023-11-19T01:53:19;1.88;;;1.13;;
6527;SDS011;64597;42.664;23.256;2023-11-19T01:55:46;1.88;;;0.70;;
6527;SDS011;64597;42.664;23.256;2023-11-19T01:58:12;1.88;;;1.05;;
6527;SDS011;64597;42.664;23.256;2023-11-19T02:00:38;1.20;;;1.02;;
6527;SDS011;64597;42.664;23.256;2023-11-19T02:03:05;2.08;;;1.10;;
6527;SDS011;64597;42.664;23.256;2023-11-19T02:07:59;1.23;;;0.93;;
6527;SDS011;64597;42.664;23.256;2023-11-19T02:10:24;1.77;;;1.35;;
6527;SDS011;64597;42.664;23.256;2023-11-19T02:12:50;1.27;;;1.00;;
6527;SDS011;64597;42.664;23.256;2023-11-19T02:15:16;1.50;;;1.15;;
6527;SDS011;64597;42.664;23.256;2023-11-19T02:17:44;2.88;;;1.40;;
6527;SDS011;64597;42.664;23.256;2023-11-19T02:20:10;2.35;;;1.20;;
6527;SDS011;64597;42.664;23.256;2023-11-19T02:22:40;1.90;;;1.00;;
6527;SDS011;64597;42.664;23.256;2023-11-19T02:25:12;1.58;;;1.20;;
6527;SDS011;64597;42.664;23.256;2023-11-19T02:30:24;1.77;;;1.05;;
6527;SDS011;64597;42.664;23.256;2023-11-19T02:32:52;2.15;;;1.05;;
6527;SDS011;64597;42.664;23.256;2023-11-19T02:35:18;1.63;;;1.10;;
6527;SDS011;64597;42.664;23.256;2023-11-19T02:37:44;1.60;;;1.17;;
6527;SDS011;64597;42.664;23.256;2023-11-19T02:40:10;1.02;;;0.90;;
6527;SDS011;64597;42.664;23.256;2023-11-19T02:42:35;1.63;;;1.17;;
6527;SDS011;64597;42.664;23.256;2023-11-19T02:45:01;6.00;;;1.42;;
6527;SDS011;64597;42.664;23.256;2023-11-19T02:47:27;3.00;;;1.52;;
6527;SDS011;64597;42.664;23.256;2023-11-19T02:49:55;2.65;;;1.20;;
6527;SDS011;64597;42.664;23.256;2023-11-19T02:52:21;1.45;;;1.05;;
6527;SDS011;64597;42.664;23.256;2023-11-19T02:54:46;3.17;;;1.30;;
6527;SDS011;64597;42.664;23.256;2023-11-19T02:57:12;1.52;;;1.10;;
6527;SDS011;64597;42.664;23.256;2023-11-19T02:59:38;1.55;;;1.30;;
6527;SDS011;64597;42.664;23.256;2023-11-19T03:02:08;3.28;;;1.20;;
6527;SDS011;64597;42.664;23.256;2023-11-19T03:07:05;2.38;;;1.20;;
6527;SDS011;64597;42.664;23.256;2023-11-19T03:12:00;0.85;;;0.73;;
6527;SDS011;64597;42.664;23.256;2023-11-19T03:14:27;1.35;;;0.93;;
6527;SDS011;64597;42.664;23.256;2023-11-19T03:16:53;2.85;;;1.20;;
6527;SDS011;64597;42.664;23.256;2023-11-19T03:19:19;1.70;;;1.02;;
6527;SDS011;64597;42.664;23.256;2023-11-19T03:21:44;1.63;;;0.90;;
6527;SDS011;64597;42.664;23.256;2023-11-19T03:24:10;1.85;;;1.30;;
6527;SDS011;64597;42.664;23.256;2023-11-19T03:26:38;1.00;;;0.60;;
6527;SDS011;64597;42.664;23.256;2023-11-19T03:29:04;1.35;;;1.10;;
6527;SDS011;64597;42.664;23.256;2023-11-19T03:31:29;1.50;;;1.17;;
6527;SDS011;64597;42.664;23.256;2023-11-19T03:33:55;1.48;;;1.20;;
6527;SDS011;64597;42.664;23.256;2023-11-19T03:36:20;1.98;;;1.02;;
6527;SDS011;64597;42.664;23.256;2023-11-19T03:38:46;1.48;;;1.05;;
6527;SDS011;64597;42.664;23.256;2023-11-19T03:41:12;1.75;;;1.05;;
6527;SDS011;64597;42.664;23.256;2023-11-19T03:43:38;1.20;;;1.00;;
6527;SDS011;64597;42.664;23.256;2023-11-19T03:46:05;1.20;;;1.08;;
6527;SDS011;64597;42.664;23.256;2023-11-19T03:48:40;2.58;;;1.23;;
6527;SDS011;64597;42.664;23.256;2023-11-19T03:51:06;1.95;;;1.42;;
6527;SDS011;64597;42.664;23.256;2023-11-19T03:53:31;1.42;;;1.15;;
6527;SDS011;64597;42.664;23.256;2023-11-19T03:55:56;2.25;;;1.00;;
6527;SDS011;64597;42.664;23.256;2023-11-19T03:58:22;1.90;;;1.13;;
6527;SDS011;64597;42.664;23.256;2023-11-19T04:00:48;2.47;;;1.00;;
6527;SDS011;64597;42.664;23.256;2023-11-19T04:03:13;2.13;;;1.13;;
6527;SDS011;64597;42.664;23.256;2023-11-19T04:05:38;1.48;;;0.98;;
6527;SDS011;64597;42.664;23.256;2023-11-19T04:08:04;1.00;;;0.77;;
6527;SDS011;64597;42.664;23.256;2023-11-19T04:10:30;1.40;;;1.10;;
6527;SDS011;64597;42.664;23.256;2023-11-19T04:12:56;1.45;;;1.10;;
6527;SDS011;64597;42.664;23.256;2023-11-19T04:15:21;2.53;;;1.20;;
6527;SDS011;64597;42.664;23.256;2023-11-19T04:17:47;1.70;;;1.10;;
6527;SDS011;64597;42.664;23.256;2023-11-19T04:20:13;1.73;;;1.15;;
6527;SDS011;64597;42.664;23.256;2023-11-19T04:22:39;1.38;;;1.05;;
6527;SDS011;64597;42.664;23.256;2023-11-19T04:25:04;1.77;;;1.00;;
6527;SDS011;64597;42.664;23.256;2023-11-19T04:27:30;2.33;;;1.15;;
6527;SDS011;64597;42.664;23.256;2023-11-19T04:29:56;2.42;;;1.30;;
6527;SDS011;64597;42.664;23.256;2023-11-19T04:32:21;1.73;;;1.17;;
6527;SDS011;64597;42.664;23.256;2023-11-19T04:34:47;2.25;;;1.27;;
6527;SDS011;64597;42.664;23.256;2023-11-19T04:37:12;2.33;;;1.38;;
6527;SDS011;64597;42.664;23.256;2023-11-19T04:39:38;1.80;;;1.00;;
6527;SDS011;64597;42.664;23.256;2023-11-19T04:42:04;2.20;;;1.38;;
6527;SDS011;64597;42.664;23.256;2023-11-19T04:44:31;1.70;;;1.20;;
6527;SDS011;64597;42.664;23.256;2023-11-19T04:46:57;1.77;;;1.38;;
6527;SDS011;64597;42.664;23.256;2023-11-19T04:49:22;2.55;;;1.23;;
6527;SDS011;64597;42.664;23.256;2023-11-19T04:51:48;1.85;;;1.23;;
6527;SDS011;64597;42.664;23.256;2023-11-19T04:54:13;2.53;;;1.08;;
6527;SDS011;64597;42.664;23.256;2023-11-19T04:56:39;1.48;;;0.73;;
6527;SDS011;64597;42.664;23.256;2023-11-19T04:59:05;2.13;;;1.33;;
6527;SDS011;64597;42.664;23.256;2023-11-19T05:01:34;1.90;;;1.20;;
6527;SDS011;64597;42.664;23.256;2023-11-19T05:04:00;1.85;;;1.23;;
6527;SDS011;64597;42.664;23.256;2023-11-19T05:06:27;2.08;;;1.02;;
6527;SDS011;64597;42.664;23.256;2023-11-19T05:08:54;1.55;;;1.38;;
6527;SDS011;64597;42.664;23.256;2023-11-19T05:11:26;1.67;;;1.13;;
6527;SDS011;64597;42.664;23.256;2023-11-19T05:13:53;1.73;;;1.10;;
6527;SDS011;64597;42.664;23.256;2023-11-19T05:16:19;1.58;;;1.20;;
6527;SDS011;64597;42.664;23.256;2023-11-19T05:18:45;1.20;;;0.80;;
6527;SDS011;64597;42.664;23.256;2023-11-19T05:21:11;1.95;;;1.38;;
6527;SDS011;64597;42.664;23.256;2023-11-19T05:23:37;1.55;;;1.00;;
6527;SDS011;64597;42.664;23.256;2023-11-19T05:26:04;1.63;;;1.10;;
6527;SDS011;64597;42.664;23.256;2023-11-19T05:28:30;2.60;;;1.05;;
6527;SDS011;64597;42.664;23.256;2023-11-19T05:30:58;2.83;;;1.13;;
6527;SDS011;64597;42.664;23.256;2023-11-19T05:33:24;1.48;;;1.08;;
6527;SDS011;64597;42.664;23.256;2023-11-19T05:35:49;2.92;;;1.15;;
6527;SDS011;64597;42.664;23.256;2023-11-19T05:38:15;2.58;;;1.25;;
6527;SDS011;64597;42.664;23.256;2023-11-19T05:40:41;2.60;;;1.40;;
6527;SDS011;64597;42.664;23.256;2023-11-19T05:43:07;1.92;;;1.23;;
6527;SDS011;64597;42.664;23.256;2023-11-19T05:45:33;2.15;;;1.17;;
6527;SDS011;64597;42.664;23.256;2023-11-19T05:47:58;2.00;;;1.08;;
6527;SDS011;64597;42.664;23.256;2023-11-19T05:50:24;1.55;;;1.17;;
6527;SDS011;64597;42.664;23.256;2023-11-19T05:52:50;1.50;;;1.15;;
6527;SDS011;64597;42.664;23.256;2023-11-19T05:55:18;2.63;;;1.38;;
6527;SDS011;64597;42.664;23.256;2023-11-19T05:57:44;2.90;;;1.90;;
6527;SDS011;64597;42.664;23.256;2023-11-19T06:00:11;1.20;;;1.10;;
6527;SDS011;64597;42.664;23.256;2023-11-19T06:02:38;1.33;;;1.10;;
6527;SDS011;64597;42.664;23.256;2023-11-19T06:05:04;3.17;;;1.60;;
6527;SDS011;64597;42.664;23.256;2023-11-19T06:07:32;1.52;;;1.10;;
6527;SDS011;64597;42.664;23.256;2023-11-19T06:09:58;1.92;;;0.90;;
6527;SDS011;64597;42.664;23.256;2023-11-19T06:12:24;2.13;;;1.50;;
6527;SDS011;64597;42.664;23.256;2023-11-19T06:14:53;1.98;;;1.27;;
6527;SDS011;64597;42.664;23.256;2023-11-19T06:17:19;2.47;;;1.20;;
6527;SDS011;64597;42.664;23.256;2023-11-19T06:19:45;2.08;;;1.23;;
6527;SDS011;64597;42.664;23.256;2023-11-19T06:22:11;2.53;;;1.20;;
6527;SDS011;64597;42.664;23.256;2023-11-19T06:24:37;2.13;;;1.20;;
6527;SDS011;64597;42.664;23.256;2023-11-19T06:27:03;2.35;;;1.17;;
6527;SDS011;64597;42.664;23.256;2023-11-19T06:29:29;2.42;;;1.30;;
6527;SDS011;64597;42.664;23.256;2023-11-19T06:31:56;1.95;;;1.63;;
6527;SDS011;64597;42.664;23.256;2023-11-19T06:34:22;1.98;;;1.38;;
6527;SDS011;64597;42.664;23.256;2023-11-19T06:36:48;2.35;;;1.48;;
6527;SDS011;64597;42.664;23.256;2023-11-19T06:39:14;2.42;;;1.52;;
6527;SDS011;64597;42.664;23.256;2023-11-19T06:41:44;2.47;;;1.48;;
6527;SDS011;64597;42.664;23.256;2023-11-19T06:44:17;2.25;;;1.65;;
6527;SDS011;64597;42.664;23.256;2023-11-19T06:46:42;3.60;;;1.50;;
6527;SDS011;64597;42.664;23.256;2023-11-19T06:49:08;3.05;;;1.55;;
6527;SDS011;64597;42.664;23.256;2023-11-19T06:51:34;1.90;;;1.33;;
6527;SDS011;64597;42.664;23.256;2023-11-19T06:54:00;2.65;;;1.15;;
6527;SDS011;64597;42.664;23.256;2023-11-19T06:56:26;2.72;;;1.60;;
6527;SDS011;64597;42.664;23.256;2023-11-19T06:58:56;2.22;;;1.20;;
6527;SDS011;64597;42.664;23.256;2023-11-19T07:01:33;2.53;;;1.52;;
6527;SDS011;64597;42.664;23.256;2023-11-19T07:04:00;2.25;;;1.52;;
6527;SDS011;64597;42.664;23.256;2023-11-19T07:06:32;1.67;;;1.30;;
6527;SDS011;64597;42.664;23.256;2023-11-19T07:08:58;3.67;;;1.30;;
6527;SDS011;64597;42.664;23.256;2023-11-19T07:11:24;1.55;;;1.10;;
6527;SDS011;64597;42.664;23.256;2023-11-19T07:13:49;1.80;;;1.33;;
6527;SDS011;64597;42.664;23.256;2023-11-19T07:16:15;2.47;;;1.48;;
6527;SDS011;64597;42.664;23.256;2023-11-19T07:18:41;1.67;;;1.20;;
6527;SDS011;64597;42.664;23.256;2023-11-19T07:21:08;2.20;;;1.67;;
6527;SDS011;64597;42.664;23.256;2023-11-19T07:23:35;2.22;;;1.58;;
6527;SDS011;64597;42.664;23.256;2023-11-19T07:26:01;2.58;;;1.38;;
6527;SDS011;64597;42.664;23.256;2023-11-19T07:28:29;3.63;;;1.25;;
6527;SDS011;64597;42.664;23.256;2023-11-19T07:30:55;1.88;;;1.35;;
6527;SDS011;64597;42.664;23.256;2023-11-19T07:33:24;1.90;;;1.10;;
6527;SDS011;64597;42.664;23.256;2023-11-19T07:35:50;2.22;;;1.27;;
6527;SDS011;64597;42.664;23.256;2023-11-19T07:38:16;4.15;;;1.50;;
6527;SDS011;64597;42.664;23.256;2023-11-19T07:40:41;2.53;;;1.38;;
6527;SDS011;64597;42.664;23.256;2023-11-19T07:43:09;1.95;;;0.90;;
6527;SDS011;64597;42.664;23.256;2023-11-19T07:45:35;3.20;;;1.25;;
6527;SDS011;64597;42.664;23.256;2023-11-19T07:48:01;3.65;;;1.98;;
6527;SDS011;64597;42.664;23.256;2023-11-19T07:50:27;3.88;;;2.30;;
6527;SDS011;64597;42.664;23.256;2023-11-19T07:52:52;2.60;;;1.38;;
6527;SDS011;64597;42.664;23.256;2023-11-19T07:55:18;2.05;;;1.25;;
6527;SDS011;64597;42.664;23.256;2023-11-19T07:57:44;2.72;;;1.58;;
6527;SDS011;64597;42.664;23.256;2023-11-19T08:00:10;2.58;;;1.50;;
6527;SDS011;64597;42.664;23.256;2023-11-19T08:02:40;5.78;;;1.58;;
6527;SDS011;64597;42.664;23.256;2023-11-19T08:05:09;2.78;;;1.40;;
6527;SDS011;64597;42.664;23.256;2023-11-19T08:07:35;1.73;;;1.45;;
6527;SDS011;64597;42.664;23.256;2023-11-19T08:10:01;3.35;;;1.67;;
6527;SDS011;64597;42.664;23.256;2023-11-19T08:12:26;3.13;;;1.88;;
6527;SDS011;64597;42.664;23.256;2023-11-19T08:14:52;1.90;;;1.42;;
6527;SDS011;64597;42.664;23.256;2023-11-19T08:17:17;2.15;;;1.60;;
6527;SDS011;64597;42.664;23.256;2023-11-19T08:19:43;3.40;;;1.92;;
6527;SDS011;64597;42.664;23.256;2023-11-19T08:22:08;2.47;;;1.70;;
6527;SDS011;64597;42.664;23.256;2023-11-19T08:24:34;2.33;;;1.60;;
6527;SDS011;64597;42.664;23.256;2023-11-19T08:27:00;2.72;;;1.77;;
6527;SDS011;64597;42.664;23.256;2023-11-19T08:29:29;4.13;;;2.00;;
6527;SDS011;64597;42.664;23.256;2023-11-19T08:31:56;4.15;;;2.70;;
6527;SDS011;64597;42.664;23.256;2023-11-19T08:34:22;2.83;;;2.13;;
6527;SDS011;64597;42.664;23.256;2023-11-19T08:36:51;2.67;;;1.70;;
6527;SDS011;64597;42.664;23.256;2023-11-19T08:39:19;3.72;;;2.30;;
6527;SDS011;64597;42.664;23.256;2023-11-19T08:41:46;3.28;;;1.63;;
6527;SDS011;64597;42.664;23.256;2023-11-19T08:44:13;5.78;;;2.08;;
6527;SDS011;64597;42.664;23.256;2023-11-19T08:46:38;3.13;;;2.15;;
6527;SDS011;64597;42.664;23.256;2023-11-19T08:49:05;3.53;;;1.90;;
6527;SDS011;64597;42.664;23.256;2023-11-19T08:51:33;2.45;;;1.70;;
6527;SDS011;64597;42.664;23.256;2023-11-19T08:53:59;2.30;;;1.55;;
6527;SDS011;64597;42.664;23.256;2023-11-19T08:56:25;2.20;;;1.35;;
6527;SDS011;64597;42.664;23.256;2023-11-19T08:58:50;2.72;;;1.48;;
6527;SDS011;64597;42.664;23.256;2023-11-19T09:01:16;3.42;;;2.45;;
6527;SDS011;64597;42.664;23.256;2023-11-19T09:03:41;5.63;;;2.58;;
6527;SDS011;64597;42.664;23.256;2023-11-19T09:06:07;2.75;;;1.88;;
6527;SDS011;64597;42.664;23.256;2023-11-19T09:08:33;2.08;;;1.70;;
6527;SDS011;64597;42.664;23.256;2023-11-19T09:10:58;2.85;;;1.90;;
6527;SDS011;64597;42.664;23.256;2023-11-19T09:13:24;2.35;;;2.15;;
6527;SDS011;64597;42.664;23.256;2023-11-19T09:15:50;3.00;;;1.90;;
6527;SDS011;64597;42.664;23.256;2023-11-19T09:18:15;2.05;;;1.42;;
6527;SDS011;64597;42.664;23.256;2023-11-19T09:20:41;2.53;;;1.48;;
6527;SDS011;64597;42.664;23.256;2023-11-19T09:23:06;2.75;;;1.30;;
6527;SDS011;64597;42.664;23.256;2023-11-19T09:25:33;3.00;;;1.40;;
6527;SDS011;64597;42.664;23.256;2023-11-19T09:27:59;1.63;;;1.20;;
6527;SDS011;64597;42.664;23.256;2023-11-19T09:30:25;3.85;;;2.15;;
6527;SDS011;64597;42.664;23.256;2023-11-19T09:32:50;3.17;;;2.88;;
6527;SDS011;64597;42.664;23.256;2023-11-19T09:35:16;2.95;;;2.42;;
6527;SDS011;64597;42.664;23.256;2023-11-19T09:37:43;3.45;;;2.20;;
6527;SDS011;64597;42.664;23.256;2023-11-19T09:40:08;3.08;;;1.83;;
6527;SDS011;64597;42.664;23.256;2023-11-19T09:42:42;3.47;;;1.95;;
6527;SDS011;64597;42.664;23.256;2023-11-19T09:45:15;2.85;;;2.00;;
6527;SDS011;64597;42.664;23.256;2023-11-19T09:47:43;3.60;;;2.08;;
6527;SDS011;64597;42.664;23.256;2023-11-19T09:50:13;4.63;;;2.40;;
6527;SDS011;64597;42.664;23.256;2023-11-19T09:52:42;4.47;;;2.50;;
6527;SDS011;64597;42.664;23.256;2023-11-19T09:55:08;2.17;;;1.70;;
6527;SDS011;64597;42.664;23.256;2023-11-19T09:57:33;4.30;;;2.15;;
6527;SDS011;64597;42.664;23.256;2023-11-19T10:00:02;4.72;;;2.88;;
6527;SDS011;64597;42.664;23.256;2023-11-19T10:02:33;3.60;;;2.30;;
6527;SDS011;64597;42.664;23.256;2023-11-19T10:05:08;5.38;;;3.22;;
6527;SDS011;64597;42.664;23.256;2023-11-19T10:07:35;2.95;;;1.73;;
6527;SDS011;64597;42.664;23.256;2023-11-19T10:10:01;3.05;;;2.40;;
6527;SDS011;64597;42.664;23.256;2023-11-19T10:12:29;3.28;;;1.58;;
6527;SDS011;64597;42.664;23.256;2023-11-19T10:14:56;2.75;;;1.65;;
6527;SDS011;64597;42.664;23.256;2023-11-19T10:17:28;2.15;;;1.48;;
6527;SDS011;64597;42.664;23.256;2023-11-19T10:19:57;5.07;;;3.47;;
6527;SDS011;64597;42.664;23.256;2023-11-19T10:22:23;4.82;;;3.08;;
6527;SDS011;64597;42.664;23.256;2023-11-19T10:24:50;3.15;;;1.88;;
6527;SDS011;64597;42.664;23.256;2023-11-19T10:27:16;2.33;;;1.63;;
6527;SDS011;64597;42.664;23.256;2023-11-19T10:29:46;3.08;;;1.52;;
6527;SDS011;64597;42.664;23.256;2023-11-19T10:32:12;2.20;;;1.48;;
6527;SDS011;64597;42.664;23.256;2023-11-19T10:34:39;2.40;;;1.40;;
6527;SDS011;64597;42.664;23.256;2023-11-19T10:37:06;1.33;;;1.20;;
6527;SDS011;64597;42.664;23.256;2023-11-19T10:39:51;2.17;;;1.00;;
6527;SDS011;64597;42.664;23.256;2023-11-19T10:42:21;2.10;;;1.13;;
6527;SDS011;64597;42.664;23.256;2023-11-19T10:44:46;2.78;;;2.15;;
6527;SDS011;64597;42.664;23.256;2023-11-19T10:47:15;4.50;;;2.92;;
6527;SDS011;64597;42.664;23.256;2023-11-19T10:49:44;3.97;;;1.92;;
6527;SDS011;64597;42.664;23.256;2023-11-19T10:52:15;8.82;;;1.95;;
6527;SDS011;64597;42.664;23.256;2023-11-19T10:54:49;2.60;;;1.90;;
6527;SDS011;64597;42.664;23.256;2023-11-19T10:57:19;1.92;;;1.63;;
6527;SDS011;64597;42.664;23.256;2023-11-19T10:59:47;2.38;;;1.45;;
6527;SDS011;64597;42.664;23.256;2023-11-19T11:02:16;5.68;;;3.00;;
6527;SDS011;64597;42.664;23.256;2023-11-19T11:04:47;5.10;;;2.90;;
6527;SDS011;64597;42.664;23.256;2023-11-19T11:07:13;5.85;;;2.42;;
6527;SDS011;64597;42.664;23.256;2023-11-19T11:09:41;4.97;;;2.47;;
6527;SDS011;64597;42.664;23.256;2023-11-19T11:12:07;3.15;;;1.85;;
6527;SDS011;64597;42.664;23.256;2023-11-19T11:14:35;3.10;;;1.70;;
6527;SDS011;64597;42.664;23.256;2023-11-19T11:17:03;2.72;;;1.60;;
6527;SDS011;64597;42.664;23.256;2023-11-19T11:19:33;2.53;;;2.00;;
6527;SDS011;64597;42.664;23.256;2023-11-19T11:21:59;3.28;;;1.25;;
6527;SDS011;64597;42.664;23.256;2023-11-19T11:27:11;3.03;;;1.80;;
6527;SDS011;64597;42.664;23.256;2023-11-19T11:29:41;3.15;;;1.65;;
6527;SDS011;64597;42.664;23.256;2023-11-19T11:32:20;2.75;;;1.40;;
6527;SDS011;64597;42.664;23.256;2023-11-19T11:35:14;2.20;;;1.40;;
6527;SDS011;64597;42.664;23.256;2023-11-19T11:38:00;2.25;;;1.40;;
6527;SDS011;64597;42.664;23.256;2023-11-19T11:40:29;2.28;;;1.40;;
6527;SDS011;64597;42.664;23.256;2023-11-19T11:42:57;2.28;;;1.40;;
6527;SDS011;64597;42.664;23.256;2023-11-19T11:45:35;2.55;;;1.30;;
6527;SDS011;64597;42.664;23.256;2023-11-19T11:48:11;2.95;;;1.30;;
6527;SDS011;64597;42.664;23.256;2023-11-19T11:50:47;2.42;;;1.30;;
6527;SDS011;64597;42.664;23.256;2023-11-19T11:53:22;2.45;;;1.45;;
6527;SDS011;64597;42.664;23.256;2023-11-19T11:58:22;2.15;;;1.50;;
6527;SDS011;64597;42.664;23.256;2023-11-19T12:00:51;1.60;;;1.20;;
6527;SDS011;64597;42.664;23.256;2023-11-19T12:03:22;3.25;;;1.25;;
6527;SDS011;64597;42.664;23.256;2023-11-19T12:05:48;2.78;;;1.52;;
6527;SDS011;64597;42.664;23.256;2023-11-19T12:08:15;2.58;;;1.48;;
6527;SDS011;64597;42.664;23.256;2023-11-19T12:13:15;1.65;;;1.13;;
6527;SDS011;64597;42.664;23.256;2023-11-19T12:16:29;1.95;;;1.40;;
6527;SDS011;64597;42.664;23.256;2023-11-19T12:18:30;3.20;;;1.52;;
6527;SDS011;64597;42.664;23.256;2023-11-19T12:20:57;1.45;;;1.10;;
6527;SDS011;64597;42.664;23.256;2023-11-19T12:23:30;2.05;;;1.30;;
6527;SDS011;64597;42.664;23.256;2023-11-19T12:25:56;2.08;;;1.10;;
6527;SDS011;64597;42.664;23.256;2023-11-19T12:28:22;1.60;;;1.20;;
6527;SDS011;64597;42.664;23.256;2023-11-19T12:30:51;1.75;;;1.10;;
6527;SDS011;64597;42.664;23.256;2023-11-19T12:33:18;2.65;;;1.42;;
6527;SDS011;64597;42.664;23.256;2023-11-19T12:35:45;2.85;;;1.90;;
6527;SDS011;64597;42.664;23.256;2023-11-19T12:38:21;3.75;;;1.70;;
6527;SDS011;64597;42.664;23.256;2023-11-19T12:41:06;3.53;;;1.58;;
6527;SDS011;64597;42.664;23.256;2023-11-19T12:43:33;2.40;;;1.65;;
6527;SDS011;64597;42.664;23.256;2023-11-19T12:46:03;1.95;;;1.45;;
6527;SDS011;64597;42.664;23.256;2023-11-19T12:48:41;2.20;;;1.30;;
6527;SDS011;64597;42.664;23.256;2023-11-19T12:51:07;3.20;;;2.20;;
6527;SDS011;64597;42.664;23.256;2023-11-19T12:53:46;4.68;;;2.78;;
6527;SDS011;64597;42.664;23.256;2023-11-19T12:56:14;2.40;;;1.40;;
6527;SDS011;64597;42.664;23.256;2023-11-19T12:58:40;5.20;;;3.08;;
6527;SDS011;64597;42.664;23.256;2023-11-19T13:01:08;2.97;;;1.58;;
6527;SDS011;64597;42.664;23.256;2023-11-19T13:03:37;3.38;;;1.40;;
6527;SDS011;64597;42.664;23.256;2023-11-19T13:06:10;4.93;;;1.55;;
6527;SDS011;64597;42.664;23.256;2023-11-19T13:08:38;2.95;;;1.83;;
6527;SDS011;64597;42.664;23.256;2023-11-19T13:11:05;3.22;;;1.80;;
6527;SDS011;64597;42.664;23.256;2023-11-19T13:13:32;2.38;;;1.70;;
6527;SDS011;64597;42.664;23.256;2023-11-19T13:16:05;2.67;;;1.52;;
6527;SDS011;64597;42.664;23.256;2023-11-19T13:18:31;2.85;;;1.42;;
6527;SDS011;64597;42.664;23.256;2023-11-19T13:20:57;2.50;;;1.60;;
6527;SDS011;64597;42.664;23.256;2023-11-19T13:23:26;1.55;;;1.00;;
6527;SDS011;64597;42.664;23.256;2023-11-19T13:25:51;2.72;;;1.98;;
6527;SDS011;64597;42.664;23.256;2023-11-19T13:28:17;2.45;;;1.77;;
6527;SDS011;64597;42.664;23.256;2023-11-19T13:30:42;4.43;;;1.55;;
6527;SDS011;64597;42.664;23.256;2023-11-19T13:33:08;3.22;;;1.70;;
6527;SDS011;64597;42.664;23.256;2023-11-19T13:35:37;4.13;;;1.85;;
6527;SDS011;64597;42.664;23.256;2023-11-19T13:40:34;1.30;;;1.00;;
6527;SDS011;64597;42.664;23.256;2023-11-19T13:43:00;3.67;;;2.20;;
6527;SDS011;64597;42.664;23.256;2023-11-19T13:45:26;4.20;;;2.78;;
6527;SDS011;64597;42.664;23.256;2023-11-19T13:47:51;3.42;;;2.22;;
6527;SDS011;64597;42.664;23.256;2023-11-19T13:50:17;3.33;;;1.48;;
6527;SDS011;64597;42.664;23.256;2023-11-19T13:52:43;2.33;;;1.38;;
6527;SDS011;64597;42.664;23.256;2023-11-19T13:55:13;3.47;;;1.30;;
6527;SDS011;64597;42.664;23.256;2023-11-19T13:57:39;1.90;;;1.25;;
6527;SDS011;64597;42.664;23.256;2023-11-19T14:00:06;2.80;;;1.58;;
6527;SDS011;64597;42.664;23.256;2023-11-19T14:02:42;3.25;;;1.10;;
6527;SDS011;64597;42.664;23.256;2023-11-19T14:05:09;3.45;;;1.67;;
6527;SDS011;64597;42.664;23.256;2023-11-19T14:07:36;1.92;;;1.20;;
6527;SDS011;64597;42.664;23.256;2023-11-19T14:10:02;1.80;;;1.55;;
6527;SDS011;64597;42.664;23.256;2023-11-19T14:12:28;1.38;;;1.00;;
6527;SDS011;64597;42.664;23.256;2023-11-19T14:14:54;2.40;;;1.30;;
6527;SDS011;64597;42.664;23.256;2023-11-19T14:17:22;1.98;;;1.33;;
6527;SDS011;64597;42.664;23.256;2023-11-19T14:19:50;2.80;;;1.63;;
6527;SDS011;64597;42.664;23.256;2023-11-19T14:22:15;2.35;;;1.60;;
6527;SDS011;64597;42.664;23.256;2023-11-19T14:24:41;3.30;;;1.17;;
6527;SDS011;64597;42.664;23.256;2023-11-19T14:27:10;1.50;;;1.00;;
6527;SDS011;64597;42.664;23.256;2023-11-19T14:29:36;2.53;;;1.20;;
6527;SDS011;64597;42.664;23.256;2023-11-19T14:32:02;4.07;;;1.58;;
6527;SDS011;64597;42.664;23.256;2023-11-19T14:34:29;1.63;;;1.30;;
6527;SDS011;64597;42.664;23.256;2023-11-19T14:36:55;2.60;;;1.30;;
6527;SDS011;64597;42.664;23.256;2023-11-19T14:39:21;2.25;;;1.25;;
6527;SDS011;64597;42.664;23.256;2023-11-19T14:41:47;4.30;;;2.15;;
6527;SDS011;64597;42.664;23.256;2023-11-19T14:44:12;1.88;;;1.55;;
6527;SDS011;64597;42.664;23.256;2023-11-19T14:46:38;3.60;;;1.85;;
6527;SDS011;64597;42.664;23.256;2023-11-19T14:49:04;3.67;;;2.15;;
6527;SDS011;64597;42.664;23.256;2023-11-19T14:51:31;3.28;;;1.10;;
6527;SDS011;64597;42.664;23.256;2023-11-19T14:53:57;1.40;;;1.10;;
6527;SDS011;64597;42.664;23.256;2023-11-19T14:56:22;2.60;;;1.52;;
6527;SDS011;64597;42.664;23.256;2023-11-19T14:58:48;0.93;;;0.52;;
6527;SDS011;64597;42.664;23.256;2023-11-19T15:01:16;1.35;;;0.77;;
6527;SDS011;64597;42.664;23.256;2023-11-19T15:03:44;3.80;;;1.92;;
6527;SDS011;64597;42.664;23.256;2023-11-19T15:06:10;2.53;;;1.58;;
6527;SDS011;64597;42.664;23.256;2023-11-19T15:08:36;3.78;;;2.30;;
6527;SDS011;64597;42.664;23.256;2023-11-19T15:11:02;11.32;;;4.05;;